• Join FlightAware (Why Join?)
  • Login
  • US Flag 
10:22PM EDT


 

Airport Tracker/Info


-or-


 

Live Flight TrackerFlight Track Log ✈ SWA1969 ✈ 10-Apr-2013 ✈ KDAL - KOKC

Flight Track Log - Related Links

Times and Time Zones

All times are in EDT time to prevent confusion due to time zone crossing. See the SWA1969 flight status page for this flight to view local times or setup timezone preferences in your user account.

Time Position Orientation Groundspeed Altitude Reporting Facility
EDT Latitude Longitude Course Direction KTS MPH feet Rate Location/Type
07:29AM 32.8667 -96.8667 316° Northwest 139 160 2,100  Level Dallas / Fort Worth TRACON
07:31AM 32.9667 -96.9833 316° Northwest 301 346 7,800 3,060 Climbing Dallas / Fort Worth TRACON
07:33AM 33.1564 -97.0636 340° North 353 406 15,100 3,360 Climbing Fort Worth Center
07:34AM 33.2567 -97.0806 352° North 394 453 18,300 3,000 Climbing Fort Worth Center
07:35AM 33.3861 -97.1000 353° North 425 489 21,100 3,300 Climbing Fort Worth Center
07:36AM 33.5114 -97.1044 358° North 437 503 24,900 2,940 Climbing Fort Worth Center
07:37AM 33.6261 -97.0867 North 437 503 27,000 1,020 Climbing Fort Worth Center
07:38AM 33.7472 -97.0736 North 427 491 27,000  Level Fort Worth Center
07:39AM 33.8600 -97.0883 354° North 409 471 27,000 -60 Level Fort Worth Center
07:40AM 33.9747 -97.1106 351° North 409 471 26,900 -1,020 Descending Fort Worth Center
07:41AM 34.0875 -97.1325 351° North 409 471 25,000 -1,920 Descending Fort Worth Center
07:42AM 34.1939 -97.1547 350° North 402 463 23,100 -1,980 Descending Fort Worth Center
07:43AM 34.3044 -97.1772 350° North 402 463 21,100 -2,100 Descending Fort Worth Center
07:44AM 34.4172 -97.1969 352° North 402 463 19,000 -2,160 Descending Fort Worth Center
07:45AM 34.5342 -97.2194 351° North 407 468 16,800 -2,220 Descending Fort Worth Center
07:46AM 34.6489 -97.2419 351° North 412 474 14,600 -2,100 Descending Fort Worth Center
07:47AM 34.7617 -97.2619 352° North 412 474 12,700 -1,800 Descending Fort Worth Center
07:48AM 34.8681 -97.2869 349° North 405 466 11,000 -1,020 Descending Fort Worth Center
07:49AM 34.9558 -97.3425 333° Northwest 357 411 10,700 -720 Descending Fort Worth Center
07:50AM 35.0119 -97.3933 323° Northwest 342 394 9,600 -1,140 Descending Fort Worth Center
07:50AM 35.0392 -97.4211 320° Northwest 293 337 9,300 -1,800 Descending Fort Worth Center
07:51AM 35.0767 -97.4617 318° Northwest 310 357 7,800 -2,280 Descending Fort Worth Center
07:51AM 35.0933 -97.4819 315° West 260 299 7,000 -1,920 Descending Fort Worth Center
07:52AM 35.1289 -97.5175 321° Northwest 272 313 5,900 -1,620 Descending Fort Worth Center
07:52AM 35.1456 -97.5431 309° West 224 258 5,400 -840 Descending Fort Worth Center
07:53AM 35.1706 -97.5711 317° Northwest 237 273 5,100 -540 Descending Fort Worth Center
07:54AM 35.1831 -97.5836 321° Northwest 175 201 4,900 -900 Descending Fort Worth Center
07:54AM 35.2100 -97.5939 343° North 193 222 4,200 -1,140 Descending Fort Worth Center
07:55AM 35.2289 -97.5914 North 160 184 3,800 -1,140 Descending Fort Worth Center
07:55AM 35.2558 -97.5942 355° North 160 184 3,100 -720 Descending Fort Worth Center
07:56AM 35.2706 -97.5942 360° North 154 177 3,100 -240 Level Fort Worth Center
07:56AM 35.2956 -97.5917 North 149 171 2,900 -420 Descending Fort Worth Center
07:57AM 35.3081 -97.5942 351° North 123 142 2,700 -720 Descending Fort Worth Center
07:57AM 35.3289 -97.5917 North 132 152 2,200 -720 Descending Fort Worth Center
07:58AM 35.3436 -97.5942 352° North 124 143 2,000 -720 Descending Fort Worth Center
07:58AM 35.3664 -97.5917 North 132 152 1,500 -480 Descending Fort Worth Center
07:59AM 35.4061 -97.5919 360° North 132 152 1,200 -300 Descending Fort Worth Center
08:03AM 35.3931 -97.6008 321° Northwest  Level Estimated
08:10AM 35.3931 -97.6008 321° Northwest  Level Estimated